Time;durP1;ratioP1;P1;durP2;ratioP2;P2;SDS_P1;SDS_P2;PMS_P1;PMS_P2;Temp;Humidity;BMP_temperature;BMP_pressure;BME280_temperature;BME280_humidity;BME280_pressure;Samples;Min_cycle;Max_cycle;Signal;HPM_P1;HPM_P2
2022/06/28 00:01:44;;;;;;;19.70;8.88;;;;;;;11.78;100.00;101911.50;5052367;28;20025;-63
2022/06/28 00:04:09;;;;;;;20.73;9.65;;;;;;;11.72;100.00;101906.09;5052539;28;20048;-63
2022/06/28 00:06:34;;;;;;;20.17;8.93;;;;;;;11.68;100.00;101904.28;5052408;28;20047;-66
2022/06/28 00:09:00;;;;;;;21.13;9.13;;;;;;;11.68;100.00;101913.09;5052486;28;20086;-63
2022/06/28 00:11:25;;;;;;;20.50;9.20;;;;;;;11.70;100.00;101907.84;5052540;28;20460;-64
2022/06/28 00:13:51;;;;;;;20.05;9.30;;;;;;;11.72;100.00;101898.16;5052525;28;20037;-63
2022/06/28 00:16:18;;;;;;;20.42;9.35;;;;;;;11.75;100.00;101900.88;5052219;28;20487;-64
2022/06/28 00:18:44;;;;;;;20.13;9.65;;;;;;;11.73;100.00;101894.63;5052624;28;20029;-63
2022/06/28 00:21:10;;;;;;;20.63;9.38;;;;;;;11.74;100.00;101899.09;5052259;28;20021;-63
2022/06/28 00:23:37;;;;;;;20.48;9.70;;;;;;;11.69;100.00;101901.66;5052588;28;20486;-62
2022/06/28 00:26:04;;;;;;;20.50;9.20;;;;;;;11.60;100.00;101912.06;5052483;28;20053;-62
2022/06/28 00:28:29;;;;;;;20.40;9.43;;;;;;;11.51;100.00;101902.22;5052503;28;20405;-62
2022/06/28 00:30:55;;;;;;;20.27;8.95;;;;;;;11.44;100.00;101910.91;5052123;28;20025;-62
2022/06/28 00:33:20;;;;;;;20.77;9.35;;;;;;;11.41;100.00;101916.16;5052134;28;20442;-61
2022/06/28 00:35:46;;;;;;;20.45;9.00;;;;;;;11.32;100.00;101921.31;5052153;28;20025;-63
2022/06/28 00:38:11;;;;;;;20.92;9.43;;;;;;;11.31;100.00;101919.50;5052327;28;20083;-62
2022/06/28 00:40:57;;;;;;;21.05;9.20;;;;;;;11.27;100.00;101922.97;5052227;28;20388;-62
2022/06/28 00:43:22;;;;;;;20.88;9.15;;;;;;;11.35;100.00;101918.72;5052251;28;20029;-63
2022/06/28 00:45:48;;;;;;;20.60;8.93;;;;;;;11.37;100.00;101929.31;5052221;28;20067;-62
2022/06/28 00:48:15;;;;;;;21.15;9.43;;;;;;;11.34;100.00;101923.13;5052107;28;20029;-62
2022/06/28 00:50:42;;;;;;;19.95;9.07;;;;;;;11.28;100.00;101919.47;5052031;28;20582;-63
2022/06/28 00:53:15;;;;;;;20.08;8.75;;;;;;;11.33;100.00;101928.38;5052112;28;20029;-62
2022/06/28 00:55:42;;;;;;;20.60;9.38;;;;;;;11.31;100.00;101920.41;5051927;28;20083;-62
2022/06/28 00:58:09;;;;;;;20.52;9.27;;;;;;;11.33;100.00;101925.75;5052423;28;20071;-63
2022/06/28 01:00:41;;;;;;;20.65;8.70;;;;;;;11.33;100.00;101933.69;5055658;28;20043;-62
2022/06/28 01:03:08;;;;;;;19.75;8.60;;;;;;;11.32;100.00;101921.31;5055758;28;20104;-62
2022/06/28 01:05:34;;;;;;;20.55;9.02;;;;;;;11.32;100.00;101914.25;5055723;28;20534;-62
2022/06/28 01:08:01;;;;;;;19.77;9.00;;;;;;;11.27;100.00;101920.31;5051785;28;20033;-62
2022/06/28 01:10:26;;;;;;;20.83;9.10;;;;;;;11.21;100.00;101925.50;5055496;28;20025;-62
2022/06/28 01:12:51;;;;;;;21.02;9.35;;;;;;;11.19;100.00;101924.59;5055590;28;20036;-62
2022/06/28 01:15:17;;;;;;;19.83;8.90;;;;;;;11.17;100.00;101921.91;5055786;28;20053;-62
2022/06/28 01:17:42;;;;;;;21.45;9.38;;;;;;;11.20;100.00;101921.97;5055273;28;20044;-62
2022/06/28 01:20:09;;;;;;;21.52;9.15;;;;;;;11.16;100.00;101922.78;5055423;28;20029;-63
2022/06/28 01:22:42;;;;;;;21.02;9.20;;;;;;;11.13;100.00;101923.59;5055192;28;20033;-62
2022/06/28 01:25:08;;;;;;;19.90;8.98;;;;;;;11.17;100.00;101935.16;5055310;28;20078;-62
2022/06/28 01:27:35;;;;;;;21.10;9.48;;;;;;;11.15;100.00;101928.91;5055327;28;20028;-63
2022/06/28 01:30:02;;;;;;;21.65;9.55;;;;;;;11.15;100.00;101936.84;5055068;28;20032;-62
2022/06/28 01:32:28;;;;;;;20.52;9.10;;;;;;;11.12;100.00;101931.50;5055229;28;20025;-62
2022/06/28 01:34:53;;;;;;;20.67;9.75;;;;;;;11.10;100.00;101931.47;5055220;28;20074;-62
2022/06/28 01:37:19;;;;;;;20.40;9.30;;;;;;;11.09;100.00;101936.75;5055203;28;20021;-63
2022/06/28 01:39:44;;;;;;;22.27;10.30;;;;;;;11.08;100.00;101937.59;5054974;28;20456;-61
2022/06/28 01:42:10;;;;;;;20.15;9.80;;;;;;;11.03;100.00;101940.16;5055100;28;20036;-62
2022/06/28 01:44:36;;;;;;;20.70;9.60;;;;;;;11.01;100.00;101936.59;5054947;28;20029;-63
2022/06/28 01:47:03;;;;;;;20.92;9.82;;;;;;;11.04;100.00;101936.66;5054784;28;20029;-61
2022/06/28 01:49:29;;;;;;;21.13;9.88;;;;;;;11.04;100.00;101939.31;5050799;28;20045;-62
2022/06/28 01:51:54;;;;;;;20.70;9.60;;;;;;;11.02;100.00;101940.13;5054984;28;20021;-62
2022/06/28 01:54:19;;;;;;;20.63;9.98;;;;;;;11.00;100.00;101940.09;5054638;28;20067;-63
2022/06/28 01:56:45;;;;;;;21.85;9.70;;;;;;;10.96;100.00;101940.91;5054795;28;20021;-62
2022/06/28 01:59:11;;;;;;;21.85;9.93;;;;;;;10.96;100.00;101940.91;5053240;28;20511;-62
2022/06/28 02:01:37;;;;;;;23.05;10.02;;;;;;;10.90;100.00;101946.06;5054761;28;20490;-62
2022/06/28 02:04:26;;;;;;;20.90;9.82;;;;;;;10.86;100.00;101952.16;5054668;28;20107;-63
2022/06/28 02:06:52;;;;;;;21.50;9.85;;;;;;;10.84;100.00;101943.31;5053899;28;20028;-63
2022/06/28 02:09:17;;;;;;;22.52;10.30;;;;;;;10.76;100.00;101944.03;5054380;28;20036;-62
2022/06/28 02:11:43;;;;;;;21.50;10.02;;;;;;;10.71;100.00;101945.69;5053959;28;20029;-63
2022/06/28 02:14:08;;;;;;;22.67;9.38;;;;;;;10.69;100.00;101943.84;5054306;28;20444;-62
2022/06/28 02:16:34;;;;;;;21.15;10.35;;;;;;;10.71;100.00;101948.31;5054319;28;20388;-63
2022/06/28 02:18:59;;;;;;;21.65;9.80;;;;;;;10.67;100.00;101956.16;5050361;28;20124;-62
2022/06/28 02:21:25;;;;;;;21.45;9.60;;;;;;;10.64;100.00;101954.34;5054396;28;20021;-62
2022/06/28 02:23:50;;;;;;;20.70;9.85;;;;;;;10.58;100.00;101957.72;5054121;28;20455;-62
2022/06/28 02:26:16;;;;;;;22.00;10.20;;;;;;;10.55;100.00;101954.16;5054194;28;20482;-62
2022/06/28 02:28:41;;;;;;;22.85;9.63;;;;;;;10.56;100.00;101969.16;5053909;28;20029;-62
2022/06/28 02:31:11;;;;;;;22.45;10.10;;;;;;;10.52;100.00;101967.31;5054094;28;20021;-62
2022/06/28 02:33:36;;;;;;;22.25;10.00;;;;;;;10.49;100.00;101969.88;5054149;28;20407;-62
2022/06/28 02:41:29;;;;;;;20.75;9.48;;;;;;;10.45;100.00;101982.13;5053770;28;20071;-62
2022/06/28 02:43:54;;;;;;;22.52;10.00;;;;;;;10.40;100.00;101981.13;5053664;28;20020;-62
2022/06/28 02:46:20;;;;;;;21.35;9.52;;;;;;;10.38;100.00;101981.09;5053802;28;20024;-64
2022/06/28 02:48:45;;;;;;;21.27;9.90;;;;;;;10.38;100.00;101990.75;5053435;28;20021;-63
2022/06/28 02:51:10;;;;;;;20.70;9.80;;;;;;;10.33;100.00;101987.09;5053774;28;20043;-63
2022/06/28 02:53:36;;;;;;;22.10;9.63;;;;;;;10.31;100.00;102000.28;5053585;28;20029;-62
2022/06/28 02:56:02;;;;;;;20.92;9.40;;;;;;;10.29;100.00;101994.97;5053276;28;20029;-68
2022/06/28 02:58:27;;;;;;;20.98;9.30;;;;;;;10.24;100.00;101999.22;5053589;28;20029;-63
2022/06/28 03:00:53;;;;;;;21.65;9.38;;;;;;;10.22;100.00;102000.94;5053589;28;20480;-63
2022/06/28 03:03:18;;;;;;;20.40;9.40;;;;;;;10.23;100.00;102012.41;5053421;28;20029;-65
2022/06/28 03:05:43;;;;;;;20.75;9.23;;;;;;;10.23;100.00;102017.69;5053772;28;20021;-63
2022/06/28 03:08:09;;;;;;;22.33;9.10;;;;;;;10.22;100.00;102018.53;5053556;28;20048;-63
2022/06/28 03:10:34;;;;;;;21.08;8.77;;;;;;;10.20;100.00;102017.63;5051913;28;20108;-63
2022/06/28 03:12:59;;;;;;;21.40;9.00;;;;;;;10.20;100.00;102007.94;5053202;28;20036;-64
2022/06/28 03:15:25;;;;;;;19.92;8.68;;;;;;;10.20;100.00;102020.25;5053182;28;20025;-63
2022/06/28 03:17:50;;;;;;;20.52;8.50;;;;;;;10.24;100.00;102014.19;5053348;28;20032;-64
2022/06/28 03:20:15;;;;;;;20.30;8.57;;;;;;;10.17;100.00;102021.06;5053281;28;20104;-63
2022/06/28 03:22:40;;;;;;;20.85;8.00;;;;;;;10.11;100.00;102013.88;5052059;28;20057;-65
2022/06/28 03:25:07;;;;;;;20.15;8.65;;;;;;;10.10;100.00;102019.13;5053277;28;20100;-62
2022/06/28 03:27:32;;;;;;;20.75;8.05;;;;;;;10.08;100.00;102019.09;5052949;28;20025;-62
2022/06/28 03:29:57;;;;;;;19.30;8.10;;;;;;;10.07;100.00;102022.59;5052913;28;20134;-62
2022/06/28 03:32:24;;;;;;;21.25;8.15;;;;;;;10.08;100.00;102029.66;5052737;28;20028;-62
2022/06/28 03:34:49;;;;;;;21.70;8.40;;;;;;;10.04;100.00;102027.78;5052952;28;20025;-62
2022/06/28 03:37:15;;;;;;;20.35;8.13;;;;;;;10.05;100.00;102028.72;5052892;28;20043;-62
2022/06/28 03:39:40;;;;;;;21.35;8.02;;;;;;;10.04;100.00;102025.16;5053022;28;20025;-63
2022/06/28 03:42:06;;;;;;;19.35;7.63;;;;;;;10.00;100.00;102025.91;5052868;28;20112;-62
2022/06/28 03:44:31;;;;;;;19.85;7.70;;;;;;;10.01;100.00;102027.72;5052568;28;20024;-62
2022/06/28 03:46:57;;;;;;;20.50;8.10;;;;;;;9.98;100.00;102048.78;5053043;28;20017;-62
2022/06/28 03:49:22;;;;;;;20.02;7.93;;;;;;;9.99;100.00;102034.72;5052433;28;20385;-62
2022/06/28 03:51:47;;;;;;;20.73;8.05;;;;;;;9.99;100.00;102037.38;5052689;28;20021;-62
2022/06/28 03:54:13;;;;;;;20.30;7.80;;;;;;;10.04;100.00;102038.34;5052890;28;20032;-62
2022/06/28 03:56:38;;;;;;;21.50;7.97;;;;;;;10.08;100.00;102034.94;5052852;28;20028;-62
2022/06/28 03:59:03;;;;;;;20.65;7.53;;;;;;;10.09;100.00;102039.38;5052404;28;20021;-63
2022/06/28 04:01:28;;;;;;;21.75;7.70;;;;;;;10.12;100.00;102039.47;5052512;28;20025;-62
2022/06/28 04:03:54;;;;;;;20.35;7.25;;;;;;;10.16;100.00;102040.41;5052398;28;20032;-63
2022/06/28 04:06:20;;;;;;;21.60;7.65;;;;;;;10.19;100.00;102042.25;5052454;28;20021;-62
2022/06/28 04:08:45;;;;;;;20.73;7.68;;;;;;;10.22;100.00;102044.97;5052822;28;20029;-62
2022/06/28 04:11:16;;;;;;;18.73;7.03;;;;;;;10.22;100.00;102037.03;5052336;28;20411;-62
2022/06/28 04:13:45;;;;;;;18.92;7.00;;;;;;;10.26;100.00;102045.06;5052077;28;20098;-62
2022/06/28 04:16:10;;;;;;;19.13;6.78;;;;;;;10.29;100.00;102033.69;5052556;28;20033;-63
2022/06/28 04:18:36;;;;;;;20.88;6.93;;;;;;;10.32;100.00;102033.75;5052199;28;20032;-63
2022/06/28 04:21:02;;;;;;;19.88;6.70;;;;;;;10.35;100.00;102040.91;5052284;28;20103;-63
2022/06/28 04:23:27;;;;;;;19.85;7.13;;;;;;;10.37;100.00;102040.09;5052715;28;20028;-64
2022/06/28 04:25:53;;;;;;;18.45;6.38;;;;;;;10.40;100.00;102031.34;5052250;28;20392;-63
2022/06/28 04:28:18;;;;;;;18.83;6.50;;;;;;;10.39;100.00;102043.66;5052114;28;20096;-63
2022/06/28 04:30:44;;;;;;;19.73;7.10;;;;;;;10.40;100.00;102042.81;5052368;28;20021;-63
2022/06/28 04:33:09;;;;;;;19.70;6.60;;;;;;;10.41;100.00;102043.69;5052052;28;20032;-63
2022/06/28 04:35:35;;;;;;;19.45;6.45;;;;;;;10.42;100.00;102051.66;5056323;28;20098;-64
2022/06/28 04:38:01;;;;;;;19.05;6.80;;;;;;;10.48;100.00;102045.63;5056400;28;20525;-63
2022/06/28 04:40:27;;;;;;;20.55;7.22;;;;;;;10.49;100.00;102046.53;5056043;28;20021;-63
2022/06/28 04:42:52;;;;;;;20.38;7.07;;;;;;;10.50;100.00;102037.72;5056487;28;20383;-68
2022/06/28 04:45:18;;;;;;;20.45;6.75;;;;;;;10.53;100.00;102037.81;5055793;28;20021;-63
2022/06/28 04:47:43;;;;;;;19.55;6.80;;;;;;;10.55;100.00;102042.28;5056129;28;20071;-64
2022/06/28 04:50:08;;;;;;;21.27;7.63;;;;;;;10.59;100.00;102043.25;5055969;28;20052;-63
2022/06/28 04:52:34;;;;;;;19.90;6.75;;;;;;;10.62;100.00;102043.31;5055753;28;20021;-64
2022/06/28 04:55:00;;;;;;;20.48;7.30;;;;;;;10.67;100.00;102046.94;5055832;28;20032;-64
2022/06/28 04:57:25;;;;;;;21.35;7.20;;;;;;;10.73;100.00;102041.84;5055853;28;20028;-63
2022/06/28 04:59:50;;;;;;;21.65;7.30;;;;;;;10.77;100.00;102048.06;5055574;28;20036;-63
2022/06/28 05:02:16;;;;;;;21.58;7.13;;;;;;;10.82;100.00;102049.97;5055528;28;20081;-63
2022/06/28 05:04:41;;;;;;;22.00;6.90;;;;;;;10.89;100.00;102050.09;5055895;28;20108;-65
2022/06/28 05:07:06;;;;;;;20.88;6.75;;;;;;;10.97;100.00;102046.75;5055731;28;20047;-63
2022/06/28 05:09:32;;;;;;;21.23;7.35;;;;;;;11.04;100.00;102050.44;5055797;28;20370;-63
2022/06/28 05:11:57;;;;;;;21.20;7.15;;;;;;;11.11;100.00;102055.00;5055734;28;20074;-64
2022/06/28 05:14:22;;;;;;;20.17;6.82;;;;;;;11.19;100.00;102055.16;5055389;28;20025;-63
2022/06/28 05:16:48;;;;;;;21.08;6.63;;;;;;;11.27;100.00;102057.94;5055396;28;20411;-66
2022/06/28 05:19:13;;;;;;;19.70;6.05;;;;;;;11.38;100.00;102055.53;5055300;28;20107;-62
2022/06/28 05:21:38;;;;;;;21.67;6.50;;;;;;;11.49;100.00;102054.00;5055137;28;20103;-62
2022/06/28 05:24:04;;;;;;;20.33;6.00;;;;;;;11.55;100.00;102055.84;5055568;28;20075;-62
2022/06/28 05:26:30;;;;;;;19.67;6.03;;;;;;;11.59;100.00;102052.41;5055234;28;20033;-62
2022/06/28 05:28:55;;;;;;;20.92;5.90;;;;;;;11.68;100.00;102053.50;5055098;28;20490;-62
2022/06/28 05:31:21;;;;;;;21.40;5.55;;;;;;;11.81;100.00;102045.75;5055137;28;20037;-62
2022/06/28 05:33:46;;;;;;;20.10;5.30;;;;;;;11.88;100.00;102050.31;5054867;28;20029;-64
2022/06/28 05:36:12;;;;;;;20.30;5.28;;;;;;;11.97;100.00;102044.31;5055121;28;20025;-62
2022/06/28 05:38:37;;;;;;;19.85;5.28;;;;;;;12.05;100.00;102041.81;5055237;28;20100;-63
2022/06/28 05:41:02;;;;;;;20.55;5.57;;;;;;;12.10;100.00;102046.34;5047546;28;20143;-65
2022/06/28 05:43:28;;;;;;;20.40;5.20;;;;;;;12.20;100.00;102037.66;5051356;28;20029;-65
2022/06/28 05:45:53;;;;;;;21.52;5.20;;;;;;;12.25;100.00;102042.16;5051919;28;20086;-64
2022/06/28 05:48:18;;;;;;;22.75;5.28;;;;;;;12.30;100.00;102040.47;5052716;28;20032;-65
2022/06/28 05:50:44;;;;;;;20.88;5.20;;;;;;;12.32;100.00;102038.72;5052977;28;20127;-65
2022/06/28 05:53:09;;;;;;;18.92;5.40;;;;;;;12.37;100.00;102031.75;5053127;28;20037;-66
2022/06/28 05:55:36;;;;;;;21.90;5.32;;;;;;;12.44;100.00;102025.66;5052980;28;20132;-64
2022/06/28 05:58:01;;;;;;;19.52;4.82;;;;;;;12.52;100.00;102024.03;5052509;28;20468;-64
2022/06/28 06:00:26;;;;;;;20.33;5.47;;;;;;;12.56;100.00;102020.53;5052668;28;20035;-65
2022/06/28 06:02:52;;;;;;;19.42;5.53;;;;;;;12.63;100.00;102024.19;5051164;28;20025;-64
2022/06/28 06:05:17;;;;;;;22.73;5.35;;;;;;;12.68;100.00;102025.16;5053036;28;20108;-66
2022/06/28 06:07:42;;;;;;;19.65;5.25;;;;;;;12.75;100.00;102026.09;5048964;28;20052;-64
2022/06/28 06:10:08;;;;;;;20.92;5.15;;;;;;;12.80;100.00;102039.44;5052542;28;20456;-64
2022/06/28 06:12:34;;;;;;;20.90;5.43;;;;;;;12.85;100.00;102028.03;5052092;28;20056;-66
2022/06/28 06:14:59;;;;;;;21.13;5.30;;;;;;;12.89;100.00;102034.28;5052562;28;20079;-65
2022/06/28 06:17:25;;;;;;;21.23;5.40;;;;;;;12.96;100.00;102032.56;5052210;28;20025;-65
2022/06/28 06:19:50;;;;;;;20.38;5.30;;;;;;;13.03;100.00;102037.09;5052437;28;20033;-64
2022/06/28 06:22:16;;;;;;;21.65;5.60;;;;;;;13.07;100.00;102031.84;5052425;28;20032;-68
2022/06/28 06:24:42;;;;;;;21.15;4.95;;;;;;;13.10;100.00;102038.97;5051853;28;20029;-65
2022/06/28 06:27:07;;;;;;;20.88;4.90;;;;;;;13.20;100.00;102042.63;5052136;28;20057;-65
2022/06/28 06:29:33;;;;;;;20.10;5.07;;;;;;;13.31;100.00;102045.41;5052496;28;20064;-65
2022/06/28 06:31:58;;;;;;;18.83;4.90;;;;;;;13.30;100.00;102049.84;5052290;28;20029;-64
2022/06/28 06:34:24;;;;;;;20.58;4.78;;;;;;;13.38;100.00;102047.28;5051791;28;20108;-67
2022/06/28 06:36:50;;;;;;;22.20;4.88;;;;;;;13.42;100.00;102047.34;5051648;28;20110;-65
2022/06/28 06:39:16;;;;;;;18.77;4.55;;;;;;;13.49;100.00;102048.31;5051982;28;20053;-65
2022/06/28 06:41:42;;;;;;;20.85;4.53;;;;;;;13.53;100.00;102058.13;5052203;28;20033;-64
2022/06/28 06:44:07;;;;;;;19.88;4.75;;;;;;;13.60;100.00;102054.66;5052195;28;20036;-64
2022/06/28 06:46:33;;;;;;;19.75;4.90;;;;;;;13.70;100.00;102052.09;5051930;28;20024;-64
2022/06/28 06:48:58;;;;;;;21.75;4.78;;;;;;;13.73;100.00;102060.09;5049205;28;20129;-63
2022/06/28 06:51:24;;;;;;;21.30;4.72;;;;;;;13.76;100.00;102058.38;5052116;28;20487;-63
2022/06/28 06:53:50;;;;;;;24.80;4.90;;;;;;;13.85;100.00;102051.34;5051962;28;20123;-63
2022/06/28 06:56:15;;;;;;;21.88;4.43;;;;;;;13.91;100.00;102060.28;5051664;28;20047;-64
2022/06/28 06:58:40;;;;;;;22.38;5.03;;;;;;;13.94;100.00;102062.97;5050974;28;20036;-63
2022/06/28 07:01:06;;;;;;;20.95;4.60;;;;;;;13.99;100.00;102060.34;5051791;28;20440;-65
2022/06/28 07:03:31;;;;;;;20.17;4.68;;;;;;;14.06;100.00;102062.19;5050723;28;20698;-65
2022/06/28 07:05:57;;;;;;;17.90;3.38;;;;;;;14.10;100.00;102064.00;5051284;28;20070;-65
2022/06/28 07:08:22;;;;;;;18.02;3.90;;;;;;;14.20;100.00;102070.31;5051364;28;20116;-65
2022/06/28 07:10:47;;;;;;;17.92;3.47;;;;;;;14.27;100.00;102066.81;5047719;28;20025;-65
2022/06/28 07:13:13;;;;;;;16.90;3.58;;;;;;;14.33;100.00;102075.72;5051543;28;20087;-64
2022/06/28 07:15:38;;;;;;;16.50;3.40;;;;;;;14.43;100.00;102073.16;5051553;28;20100;-64
2022/06/28 07:18:04;;;;;;;18.90;3.47;;;;;;;14.53;100.00;102065.22;5051142;28;20108;-64
2022/06/28 07:20:29;;;;;;;19.75;3.85;;;;;;;14.58;100.00;102064.38;5051323;28;20492;-64
2022/06/28 07:22:55;;;;;;;17.48;3.60;;;;;;;14.65;100.00;102065.38;5049255;28;20078;-62
2022/06/28 07:25:20;;;;;;;16.67;3.38;;;;;;;14.71;100.00;102072.47;5050146;28;20068;-63
2022/06/28 07:27:46;;;;;;;16.85;3.30;;;;;;;14.75;100.00;102068.97;5049510;28;20120;-63
2022/06/28 07:30:11;;;;;;;13.77;3.20;;;;;;;14.85;100.00;102065.47;5046654;28;20024;-70
2022/06/28 07:32:37;;;;;;;17.50;3.50;;;;;;;14.93;100.00;102062.88;5048280;28;20032;-70
2022/06/28 07:35:04;;;;;;;17.45;3.78;;;;;;;15.03;100.00;102061.13;5046677;28;20028;-63
2022/06/28 07:37:29;;;;;;;18.02;3.92;;;;;;;15.11;100.00;102060.28;5048720;28;20021;-69
2022/06/28 07:39:55;;;;;;;20.23;3.80;;;;;;;15.16;100.00;102061.22;5049478;28;20384;-64
2022/06/28 07:42:20;;;;;;;15.93;3.33;;;;;;;15.20;100.00;102067.44;5048657;28;20040;-63
2022/06/28 07:44:45;;;;;;;17.35;3.50;;;;;;;15.30;100.00;102066.63;5049594;28;20029;-63
2022/06/28 07:47:11;;;;;;;16.30;3.35;;;;;;;15.33;100.00;102065.72;5049299;28;20115;-63
2022/06/28 07:52:35;;;;;;;14.95;3.17;;;;;;;15.47;100.00;102071.09;5052685;28;20044;-62
2022/06/28 07:55:01;;;;;;;16.60;3.30;;;;;;;15.60;100.00;102067.59;5049646;28;20562;-62
2022/06/28 07:57:27;;;;;;;16.42;3.10;;;;;;;15.75;100.00;102069.41;5052606;28;20095;-62
2022/06/28 07:59:53;;;;;;;15.45;3.60;;;;;;;15.87;100.00;102065.88;5052769;28;20104;-62
2022/06/28 08:02:19;;;;;;;14.65;3.05;;;;;;;15.98;100.00;102060.59;5052395;28;20051;-62
2022/06/28 08:04:44;;;;;;;14.15;3.00;;;;;;;16.11;100.00;102064.16;5052420;28;20472;-62
2022/06/28 08:07:09;;;;;;;17.23;3.20;;;;;;;16.23;100.00;102053.47;5052585;28;20029;-63
2022/06/28 08:09:35;;;;;;;15.73;3.00;;;;;;;16.27;100.00;102057.94;5051781;28;20036;-63
2022/06/28 08:12:00;;;;;;;17.65;3.30;;;;;;;16.43;100.00;102052.59;5052408;28;20036;-63
2022/06/28 08:14:27;;;;;;;16.80;3.08;;;;;;;16.48;100.00;102049.00;5052433;28;20391;-63
2022/06/28 08:16:52;;;;;;;16.73;3.35;;;;;;;16.53;100.00;102057.91;5052616;28;20025;-62
2022/06/28 08:19:19;;;;;;;16.92;3.20;;;;;;;16.53;98.56;102057.03;5052170;28;20017;-62
2022/06/28 08:21:45;;;;;;;15.80;3.00;;;;;;;16.58;98.69;102057.91;5050280;28;20033;-62
2022/06/28 08:24:11;;;;;;;12.45;2.70;;;;;;;16.60;97.94;102045.47;5046144;28;20029;-71
2022/06/28 08:26:42;;;;;;;12.80;2.72;;;;;;;16.71;98.64;102045.44;5049117;28;20483;-72
2022/06/28 08:29:08;;;;;;;14.52;2.90;;;;;;;16.74;91.11;102037.41;5050913;28;20036;-69
2022/06/28 08:31:33;;;;;;;14.95;3.03;;;;;;;16.92;96.52;102032.94;5050428;28;20472;-70
2022/06/28 08:33:58;;;;;;;12.63;2.65;;;;;;;17.02;94.86;102035.59;5049849;28;20037;-69
2022/06/28 08:36:24;;;;;;;14.05;3.30;;;;;;;17.07;87.16;102031.09;5050027;28;20116;-69
2022/06/28 08:38:49;;;;;;;11.30;2.63;;;;;;;17.21;93.50;102030.16;5050352;28;20036;-70
2022/06/28 08:41:14;;;;;;;12.73;2.55;;;;;;;17.25;87.77;102032.81;5050440;28;20033;-69
2022/06/28 08:43:40;;;;;;;12.68;2.60;;;;;;;17.38;92.07;102027.41;5050059;28;20024;-64
2022/06/28 08:46:06;;;;;;;14.63;2.70;;;;;;;17.52;94.21;102019.34;5049425;28;20036;-63
2022/06/28 08:48:38;;;;;;;15.02;2.80;;;;;;;17.47;90.71;102026.47;5048945;28;20041;-66
2022/06/28 08:51:07;;;;;;;;;;;;;;;17.53;96.11;102013.97;5050752;28;20136;-63
2022/06/28 08:53:33;;;;;;;12.73;2.80;;;;;;;17.68;90.08;102010.31;5049780;28;20029;-64
2022/06/28 08:55:59;;;;;;;11.15;2.72;;;;;;;17.86;86.02;102013.75;5051764;28;20061;-65
2022/06/28 08:58:26;;;;;;;12.32;2.53;;;;;;;18.08;88.27;102014.50;5052016;28;20068;-63
2022/06/28 09:00:51;;;;;;;12.55;2.60;;;;;;;18.34;86.41;102018.72;5052121;28;20025;-62
2022/06/28 09:03:19;;;;;;;11.52;2.50;;;;;;;18.36;81.73;102019.59;5051817;28;20110;-63
2022/06/28 09:05:44;;;;;;;9.30;2.20;;;;;;;18.34;79.33;102022.28;5045535;28;20021;-73
2022/06/28 09:08:10;;;;;;;11.50;2.30;;;;;;;18.37;78.19;102022.25;5049790;28;20372;-69
2022/06/28 09:10:36;;;;;;;11.15;2.40;;;;;;;18.35;77.48;102024.06;5051306;28;20055;-70
2022/06/28 09:13:09;;;;;;;11.02;2.42;;;;;;;18.40;81.79;102013.31;5050331;28;20052;-71
2022/06/28 09:15:49;;;;;;;9.30;2.40;;;;;;;18.34;79.96;102014.25;5050955;28;20051;-68
2022/06/28 09:18:16;;;;;;;13.10;2.72;;;;;;;18.46;81.03;102008.78;5050668;28;20025;-73
2022/06/28 09:20:42;;;;;;;12.38;2.40;;;;;;;18.66;84.25;102002.34;5051530;28;20387;-76
2022/06/28 09:23:41;;;;;;;12.57;2.50;;;;;;;18.73;80.46;102000.47;5053788;28;20032;-72
2022/06/28 09:26:19;;;;;;;11.48;2.20;;;;;;;18.87;79.32;102000.34;5012875;28;20398;-70
2022/06/28 09:28:50;;;;;;;11.25;2.10;;;;;;;18.81;79.58;102001.25;5012638;28;20034;-69
2022/06/28 09:31:28;;;;;;;9.23;2.33;;;;;;;18.85;77.74;101997.66;5023255;28;20029;-70
2022/06/28 09:34:00;;;;;;;8.48;2.20;;;;;;;18.97;76.53;101994.88;5012002;28;20030;-71
2022/06/28 09:36:26;;;;;;;10.33;2.37;;;;;;;19.20;75.81;101992.78;5012001;28;20038;-70
2022/06/28 09:38:53;;;;;;;10.30;2.25;;;;;;;19.41;77.61;101988.91;5012493;28;20110;-68
2022/06/28 09:41:24;;;;;;;8.80;2.10;;;;;;;19.54;75.93;101994.97;5012223;28;20081;-68
2022/06/28 09:44:08;;;;;;;13.13;2.40;;;;;;;19.67;77.69;101993.88;5011929;28;20096;-69
2022/06/28 09:46:33;;;;;;;9.65;2.20;;;;;;;19.70;74.44;101983.09;5009803;28;20037;-69
2022/06/28 09:49:01;;;;;;;12.18;2.30;;;;;;;19.80;74.43;101983.88;5008563;28;20077;-69
2022/06/28 09:51:30;;;;;;;10.88;2.30;;;;;;;19.94;72.74;101975.63;5012166;28;20125;-68
2022/06/28 09:53:58;;;;;;;11.25;2.38;;;;;;;20.03;71.06;101975.44;5011265;28;20108;-66
2022/06/28 09:56:27;;;;;;;8.30;2.30;;;;;;;20.10;71.83;101969.06;5012171;28;20048;-64
2022/06/28 09:58:53;;;;;;;8.57;2.20;;;;;;;20.32;71.92;101963.31;5011746;28;20393;-64
2022/06/28 10:01:21;;;;;;;14.60;2.50;;;;;;;20.53;70.32;101960.22;5025787;28;20037;-67
2022/06/28 10:03:49;;;;;;;11.48;2.17;;;;;;;20.59;68.95;101966.38;5054216;28;20100;-67
2022/06/28 10:06:16;;;;;;;9.10;2.20;;;;;;;20.85;69.92;101972.16;5054660;28;20021;-64
2022/06/28 10:08:42;;;;;;;10.73;2.00;;;;;;;21.45;68.20;101969.94;5054352;28;20361;-63
2022/06/28 10:11:10;;;;;;;12.15;2.28;;;;;;;22.85;65.84;101968.13;5054651;28;20111;-68
2022/06/28 10:16:28;;;;;;;11.80;2.20;;;;;;;25.98;44.83;101971.41;5052005;28;20063;-65
2022/06/28 10:18:54;;;;;;;14.15;2.50;;;;;;;26.48;37.98;101965.66;5054227;28;20028;-64
2022/06/28 10:21:42;;;;;;;10.70;2.40;;;;;;;26.35;42.30;101961.72;5054080;28;20017;-64
2022/06/28 10:24:08;;;;;;;7.07;2.03;;;;;;;27.88;37.91;101951.78;5053991;28;20055;-68
2022/06/28 10:26:33;;;;;;;12.10;2.10;;;;;;;29.02;34.28;101964.78;5054274;28;20033;-64
2022/06/28 10:29:07;;;;;;;7.90;2.30;;;;;;;29.32;35.33;101959.47;5053881;28;20017;-65
2022/06/28 10:31:38;;;;;;;9.32;2.30;;;;;;;29.12;34.09;101955.13;5053453;28;20029;-65
2022/06/28 10:34:08;;;;;;;10.13;2.10;;;;;;;29.91;32.82;101945.16;5053842;28;20029;-64
2022/06/28 10:36:51;;;;;;;9.65;2.30;;;;;;;29.71;34.66;101938.16;5054268;28;20035;-65
2022/06/28 10:39:23;;;;;;;12.75;2.30;;;;;;;28.62;35.86;101929.78;5051064;28;20101;-64
2022/06/28 10:41:54;;;;;;;9.98;2.35;;;;;;;28.66;32.48;101930.50;5053791;28;20476;-64
2022/06/28 10:44:30;;;;;;;11.80;2.17;;;;;;;28.68;35.21;101924.00;5053592;28;20067;-64
2022/06/28 10:47:01;;;;;;;12.75;2.20;;;;;;;29.13;33.24;101928.81;5054033;28;20028;-64
2022/06/28 10:49:52;;;;;;;10.83;2.20;;;;;;;30.06;30.70;101935.19;5053765;28;20049;-64
2022/06/28 10:52:17;;;;;;;10.50;2.35;;;;;;;30.29;30.50;101914.69;5028830;28;20276;-64
2022/06/28 10:54:51;;;;;;;10.05;2.30;;;;;;;29.96;32.49;101914.91;5031319;28;20095;-64
2022/06/28 10:57:23;;;;;;;9.23;2.20;;;;;;;30.35;31.29;101907.94;5028569;28;20038;-64
2022/06/28 10:59:54;;;;;;;8.52;2.13;;;;;;;30.85;30.79;101913.91;5031455;28;20468;-65
2022/06/28 11:02:19;;;;;;;11.13;2.30;;;;;;;30.24;29.74;101905.91;5031495;28;20049;-64
2022/06/28 11:04:46;;;;;;;6.28;2.30;;;;;;;30.11;30.08;101916.69;5031383;28;20076;-64
2022/06/28 11:07:17;;;;;;;8.35;2.10;;;;;;;29.93;31.49;101907.81;5031410;28;20029;-64
2022/06/28 11:09:59;;;;;;;7.10;2.13;;;;;;;30.85;31.39;101906.59;5027927;28;20038;-64
2022/06/28 11:12:27;;;;;;;8.65;2.13;;;;;;;28.99;30.52;101903.25;5029431;28;20463;-64
2022/06/28 11:15:01;;;;;;;9.23;2.13;;;;;;;28.25;33.76;101890.09;5031021;28;20455;-64
2022/06/28 11:17:28;;;;;;;10.85;2.20;;;;;;;29.94;31.86;101889.59;5031115;28;20483;-64
2022/06/28 11:19:56;;;;;;;6.30;2.00;;;;;;;32.30;27.96;101885.91;5014117;28;20096;-64
2022/06/28 11:22:28;;;;;;;10.07;2.17;;;;;;;32.44;28.16;101897.69;5031145;28;20048;-64